Time;durP1;ratioP1;P1;durP2;ratioP2;P2;SDS_P1;SDS_P2;PMS_P1;PMS_P2;Temp;Humidity;BMP_temperature;BMP_pressure;BME280_temperature;BME280_humidity;BME280_pressure;Samples;Min_cycle;Max_cycle;Signal;HPM_P1;HPM_P2
2021/08/19 00:01:43;;;;;;;1.10;0.80;;;;;;;;;;4954893;28;20499;-77
2021/08/19 00:04:09;;;;;;;0.93;0.70;;;;;;;;;;4953170;28;20426;-77
2021/08/19 00:06:35;;;;;;;1.67;1.10;;;;;;;;;;4952213;28;20443;-76
2021/08/19 00:09:01;;;;;;;0.97;0.80;;;;;;;;;;4952908;28;20402;-77
2021/08/19 00:11:27;;;;;;;0.80;0.80;;;;;;;;;;4952840;28;20469;-77
2021/08/19 00:13:53;;;;;;;1.60;1.30;;;;;;;;;;4959964;28;20431;-77
2021/08/19 00:16:19;;;;;;;1.67;0.70;;;;;;;;;;4952360;28;20795;-77
2021/08/19 00:18:45;;;;;;;1.30;1.07;;;;;;;;;;4952647;28;20427;-77
2021/08/19 00:21:11;;;;;;;1.07;1.00;;;;;;;;;;4965970;28;20466;-77
2021/08/19 00:23:37;;;;;;;0.80;0.63;;;;;;;;;;4966396;28;20447;-77
2021/08/19 00:26:04;;;;;;;1.23;1.13;;;;;;;;;;4977949;28;20453;-77
2021/08/19 00:28:30;;;;;;;1.50;1.23;;;;;;;;;;4978931;23;20518;-76
2021/08/19 00:30:56;;;;;;;1.73;1.63;;;;;;;;;;4959319;28;20457;-76
2021/08/19 00:33:23;;;;;;;0.90;0.90;;;;;;;;;;4952101;28;20518;-77
2021/08/19 00:35:49;;;;;;;4.37;1.10;;;;;;;;;;4956151;28;20488;-77
2021/08/19 00:38:15;;;;;;;1.80;0.80;;;;;;;;;;4945871;28;20436;-76
2021/08/19 00:40:41;;;;;;;1.07;0.70;;;;;;;;;;4933268;28;21173;-77
2021/08/19 00:43:08;;;;;;;8.20;1.13;;;;;;;;;;4936454;28;20912;-77
2021/08/19 00:45:35;;;;;;;1.17;1.07;;;;;;;;;;5002076;28;20430;-76
2021/08/19 00:48:01;;;;;;;1.10;1.00;;;;;;;;;;4992536;28;20434;-76
2021/08/19 00:50:28;;;;;;;1.30;1.20;;;;;;;;;;4934310;28;20771;-77
2021/08/19 00:52:54;;;;;;;1.50;1.23;;;;;;;;;;4942539;28;20444;-77
2021/08/19 00:55:20;;;;;;;0.83;0.70;;;;;;;;;;4946359;28;20985;-76
2021/08/19 00:57:46;;;;;;;0.80;0.67;;;;;;;;;;4932947;28;20472;-75
2021/08/19 01:00:13;;;;;;;13.33;1.33;;;;;;;;;;4934047;28;20413;-75
2021/08/19 01:02:42;;;;;;;1.50;1.40;;;;;;;;;;5031908;28;20791;-77
2021/08/19 01:05:09;;;;;;;1.10;1.00;;;;;;;;;;4938892;28;20504;-76
2021/08/19 01:07:35;;;;;;;2.10;1.27;;;;;;;;;;4934159;28;20460;-76
2021/08/19 01:10:01;;;;;;;1.33;1.23;;;;;;;;;;4933291;28;20391;-76
2021/08/19 01:12:27;;;;;;;1.27;1.17;;;;;;;;;;4932982;28;20432;-75
2021/08/19 01:14:53;;;;;;;1.10;0.87;;;;;;;;;;5006096;28;20435;-75
2021/08/19 01:17:19;;;;;;;1.73;1.00;;;;;;;;;;5029624;28;20824;-75
2021/08/19 01:19:46;;;;;;;1.57;0.90;;;;;;;;;;5033275;28;20423;-75
2021/08/19 01:22:12;;;;;;;1.60;1.50;;;;;;;;;;5002289;28;20534;-76
2021/08/19 01:24:38;;;;;;;1.20;0.80;;;;;;;;;;4993193;28;20454;-77
2021/08/19 01:27:04;;;;;;;1.30;0.90;;;;;;;;;;4986603;28;20464;-76
2021/08/19 01:29:30;;;;;;;1.10;1.00;;;;;;;;;;4991250;28;20420;-76
2021/08/19 01:31:58;;;;;;;2.10;1.17;;;;;;;;;;4931881;28;20436;-76
2021/08/19 01:34:24;;;;;;;2.20;1.47;;;;;;;;;;4986242;28;21159;-76
2021/08/19 01:36:50;;;;;;;1.20;0.90;;;;;;;;;;4979926;28;20778;-76
2021/08/19 01:39:16;;;;;;;1.70;1.60;;;;;;;;;;4994259;28;20471;-75
2021/08/19 01:41:42;;;;;;;0.80;0.70;;;;;;;;;;4933196;28;20492;-76
2021/08/19 01:44:08;;;;;;;1.10;0.90;;;;;;;;;;4974043;28;20427;-76
2021/08/19 01:46:34;;;;;;;0.80;0.80;;;;;;;;;;5023979;28;20922;-75
2021/08/19 01:49:02;;;;;;;1.10;0.80;;;;;;;;;;4955658;28;20457;-75
2021/08/19 01:51:28;;;;;;;1.70;1.60;;;;;;;;;;4935677;28;20432;-76
2021/08/19 01:53:54;;;;;;;0.80;0.60;;;;;;;;;;4970809;28;20497;-76
2021/08/19 01:56:23;;;;;;;1.53;1.43;;;;;;;;;;4978514;28;20777;-76
2021/08/19 01:58:50;;;;;;;0.97;0.87;;;;;;;;;;4948757;28;20459;-76
2021/08/19 02:01:19;;;;;;;1.27;1.17;;;;;;;;;;4944031;28;20442;-76
2021/08/19 02:03:45;;;;;;;1.00;0.90;;;;;;;;;;4993329;28;20777;-76
2021/08/19 02:06:11;;;;;;;1.77;1.20;;;;;;;;;;5030774;28;20467;-76
2021/08/19 02:08:37;;;;;;;1.40;0.90;;;;;;;;;;4983050;28;20498;-75
2021/08/19 02:11:03;;;;;;;2.40;1.10;;;;;;;;;;4933154;28;20782;-75
2021/08/19 02:13:29;;;;;;;1.03;0.93;;;;;;;;;;4932858;29;20904;-75
2021/08/19 02:15:55;;;;;;;1.83;1.40;;;;;;;;;;4931281;28;20494;-76
2021/08/19 02:18:21;;;;;;;0.90;0.80;;;;;;;;;;4932171;28;20457;-75
2021/08/19 02:20:47;;;;;;;1.93;1.77;;;;;;;;;;4966374;28;20471;-76
2021/08/19 02:23:13;;;;;;;1.00;0.90;;;;;;;;;;4936563;28;20433;-74
2021/08/19 02:25:39;;;;;;;1.10;1.00;;;;;;;;;;4992812;28;20476;-75
2021/08/19 02:28:05;;;;;;;1.17;0.83;;;;;;;;;;4931924;28;20559;-76
2021/08/19 02:30:31;;;;;;;0.80;0.70;;;;;;;;;;4933221;28;20400;-77
2021/08/19 02:32:57;;;;;;;1.27;1.17;;;;;;;;;;4932259;28;20440;-76
2021/08/19 02:35:24;;;;;;;1.13;1.03;;;;;;;;;;4933019;28;20431;-75
2021/08/19 02:37:50;;;;;;;0.80;0.60;;;;;;;;;;4939697;28;20966;-76
2021/08/19 02:40:16;;;;;;;1.10;0.63;;;;;;;;;;4940231;28;20444;-76
2021/08/19 02:42:42;;;;;;;0.80;0.60;;;;;;;;;;5031675;28;20416;-76
2021/08/19 02:45:08;;;;;;;1.53;1.43;;;;;;;;;;4955339;28;20443;-75
2021/08/19 02:47:34;;;;;;;1.40;1.30;;;;;;;;;;4931561;28;20431;-77
2021/08/19 02:50:00;;;;;;;1.20;0.73;;;;;;;;;;4934021;28;20823;-77
2021/08/19 02:52:26;;;;;;;1.07;1.00;;;;;;;;;;4932720;28;20406;-76
2021/08/19 02:54:52;;;;;;;2.97;1.13;;;;;;;;;;4956466;28;20432;-76
2021/08/19 02:57:18;;;;;;;1.73;1.30;;;;;;;;;;4984596;28;20525;-76
2021/08/19 02:59:44;;;;;;;0.83;0.83;;;;;;;;;;4935540;28;20969;-77
2021/08/19 03:02:10;;;;;;;0.90;0.73;;;;;;;;;;5007456;28;20469;-77
2021/08/19 03:04:36;;;;;;;1.47;1.23;;;;;;;;;;4930232;28;20448;-76
2021/08/19 03:07:02;;;;;;;1.73;0.83;;;;;;;;;;4936550;28;20431;-75
2021/08/19 03:09:28;;;;;;;1.30;1.03;;;;;;;;;;4973213;28;20485;-76
2021/08/19 03:11:54;;;;;;;0.80;0.60;;;;;;;;;;4994198;28;20437;-75
2021/08/19 03:14:20;;;;;;;1.03;0.93;;;;;;;;;;4934553;28;20844;-75
2021/08/19 03:16:46;;;;;;;1.33;1.23;;;;;;;;;;4931497;28;20425;-75
2021/08/19 03:19:15;;;;;;;1.80;1.47;;;;;;;;;;4933406;28;20471;-76
2021/08/19 03:21:41;;;;;;;2.10;0.90;;;;;;;;;;4935889;28;20467;-75
2021/08/19 03:24:07;;;;;;;1.10;0.73;;;;;;;;;;4993031;28;20438;-75
2021/08/19 03:26:33;;;;;;;0.80;0.80;;;;;;;;;;4934755;28;20432;-76
2021/08/19 03:28:59;;;;;;;0.90;0.80;;;;;;;;;;4936304;28;20491;-75
2021/08/19 03:31:26;;;;;;;1.20;1.10;;;;;;;;;;4955960;28;20440;-75
2021/08/19 03:33:53;;;;;;;2.73;2.03;;;;;;;;;;4935797;28;20436;-76
2021/08/19 03:36:19;;;;;;;1.00;0.90;;;;;;;;;;4935100;28;20620;-77
2021/08/19 03:38:45;;;;;;;1.10;1.00;;;;;;;;;;4943527;28;20827;-76
2021/08/19 03:41:12;;;;;;;1.40;1.30;;;;;;;;;;4943774;28;20517;-75
2021/08/19 03:43:38;;;;;;;2.57;1.27;;;;;;;;;;4937732;28;20566;-76
2021/08/19 03:46:05;;;;;;;0.80;0.70;;;;;;;;;;4937701;28;20436;-76
2021/08/19 03:48:31;;;;;;;0.90;0.70;;;;;;;;;;4935424;28;20453;-75
2021/08/19 03:50:57;;;;;;;2.17;1.33;;;;;;;;;;4934760;28;20850;-76
2021/08/19 03:53:23;;;;;;;1.03;0.93;;;;;;;;;;4994932;28;20434;-76
2021/08/19 03:55:49;;;;;;;1.17;1.07;;;;;;;;;;4973685;28;20430;-75
2021/08/19 03:58:15;;;;;;;1.30;1.17;;;;;;;;;;4934813;28;20817;-76
2021/08/19 04:00:41;;;;;;;1.00;0.90;;;;;;;;;;4996593;28;20463;-75
2021/08/19 04:03:07;;;;;;;1.03;0.93;;;;;;;;;;4934195;28;20410;-76
2021/08/19 04:05:33;;;;;;;1.43;1.33;;;;;;;;;;4934603;28;20471;-76
2021/08/19 04:07:59;;;;;;;0.93;0.83;;;;;;;;;;4941464;28;20427;-76
2021/08/19 04:10:25;;;;;;;1.60;0.93;;;;;;;;;;4940198;28;20414;-77
2021/08/19 04:12:51;;;;;;;1.10;1.00;;;;;;;;;;4937176;28;20456;-76
2021/08/19 04:15:17;;;;;;;1.63;0.90;;;;;;;;;;4934935;28;20457;-76
2021/08/19 04:17:43;;;;;;;4.00;1.10;;;;;;;;;;4934681;28;20451;-76
2021/08/19 04:20:10;;;;;;;1.40;1.30;;;;;;;;;;4944676;28;20814;-77
2021/08/19 04:22:36;;;;;;;1.00;0.90;;;;;;;;;;4952046;28;20428;-76
2021/08/19 04:25:04;;;;;;;2.87;2.67;;;;;;;;;;4945455;28;20447;-76
2021/08/19 04:27:30;;;;;;;1.73;1.63;;;;;;;;;;4984994;28;20468;-71
2021/08/19 04:29:56;;;;;;;1.10;1.00;;;;;;;;;;4946635;28;20446;-71
2021/08/19 04:32:22;;;;;;;1.73;0.70;;;;;;;;;;4936246;28;21000;-71
2021/08/19 04:34:51;;;;;;;1.27;1.10;;;;;;;;;;4949444;28;20432;-72
2021/08/19 04:37:17;;;;;;;1.17;0.80;;;;;;;;;;4944376;28;20452;-71
2021/08/19 04:39:43;;;;;;;1.87;1.73;;;;;;;;;;4940132;28;20460;-70
2021/08/19 04:42:09;;;;;;;2.20;0.90;;;;;;;;;;4952035;28;20533;-71
2021/08/19 04:44:35;;;;;;;3.27;1.17;;;;;;;;;;4939594;29;20414;-70
2021/08/19 04:47:01;;;;;;;1.37;1.17;;;;;;;;;;4975843;28;20445;-70
2021/08/19 04:49:27;;;;;;;1.10;0.73;;;;;;;;;;4948523;28;20813;-71
2021/08/19 04:51:53;;;;;;;0.90;0.87;;;;;;;;;;4983158;28;20406;-71
2021/08/19 04:54:19;;;;;;;1.00;0.70;;;;;;;;;;4948211;28;20415;-71
2021/08/19 04:56:46;;;;;;;0.87;0.87;;;;;;;;;;4988498;28;20437;-71
2021/08/19 04:59:12;;;;;;;0.90;0.70;;;;;;;;;;5033311;28;20478;-70
2021/08/19 05:01:41;;;;;;;1.13;0.70;;;;;;;;;;4957583;28;20471;-70
2021/08/19 05:04:08;;;;;;;0.90;0.60;;;;;;;;;;4932939;29;20417;-70
2021/08/19 05:06:34;;;;;;;1.33;1.23;;;;;;;;;;4931809;29;20424;-71
2021/08/19 05:09:01;;;;;;;0.90;0.60;;;;;;;;;;4932612;29;20432;-70
2021/08/19 05:11:27;;;;;;;1.33;1.20;;;;;;;;;;4987788;28;20523;-70
2021/08/19 05:13:55;;;;;;;1.37;1.27;;;;;;;;;;4946529;28;20431;-70
2021/08/19 05:16:21;;;;;;;1.30;1.20;;;;;;;;;;4938178;28;20494;-71
2021/08/19 05:18:47;;;;;;;1.00;0.90;;;;;;;;;;4941096;28;20868;-70
2021/08/19 05:21:13;;;;;;;1.07;0.70;;;;;;;;;;4938698;28;20468;-71
2021/08/19 05:23:40;;;;;;;1.57;1.00;;;;;;;;;;5003656;28;20403;-71
2021/08/19 05:26:07;;;;;;;1.90;1.80;;;;;;;;;;4967108;28;20396;-72
2021/08/19 05:28:33;;;;;;;2.20;1.57;;;;;;;;;;4934047;28;20998;-71
2021/08/19 05:30:59;;;;;;;1.37;0.87;;;;;;;;;;4932511;29;20464;-70
2021/08/19 05:33:25;;;;;;;1.27;1.17;;;;;;;;;;4933080;29;20871;-71
2021/08/19 05:35:51;;;;;;;0.80;0.60;;;;;;;;;;4932885;29;20400;-71
2021/08/19 05:38:17;;;;;;;1.17;1.07;;;;;;;;;;4933792;28;20554;-70
2021/08/19 05:40:43;;;;;;;1.03;0.80;;;;;;;;;;4953797;28;20502;-71
2021/08/19 05:43:09;;;;;;;1.00;0.60;;;;;;;;;;4933876;28;20468;-70
2021/08/19 05:45:35;;;;;;;1.30;1.20;;;;;;;;;;4933903;28;20410;-70
2021/08/19 05:48:02;;;;;;;0.80;0.60;;;;;;;;;;4936962;28;20425;-70
2021/08/19 05:50:33;;;;;;;1.57;1.47;;;;;;;;;;4938578;28;21003;-71
2021/08/19 05:52:59;;;;;;;0.97;0.90;;;;;;;;;;4934131;29;20426;-70
2021/08/19 05:55:25;;;;;;;0.80;0.70;;;;;;;;;;4937876;28;20428;-70
2021/08/19 05:57:51;;;;;;;1.90;1.23;;;;;;;;;;5011922;28;20856;-71
2021/08/19 06:00:20;;;;;;;1.00;0.90;;;;;;;;;;5038153;28;20408;-70
2021/08/19 06:02:46;;;;;;;2.30;0.90;;;;;;;;;;5039247;28;20474;-70
2021/08/19 06:05:12;;;;;;;0.97;0.87;;;;;;;;;;5038771;28;20384;-70
2021/08/19 06:07:38;;;;;;;1.00;0.80;;;;;;;;;;4968032;28;20424;-72
2021/08/19 06:10:05;;;;;;;2.50;0.63;;;;;;;;;;4935119;29;20396;-71
2021/08/19 06:12:31;;;;;;;2.00;0.70;;;;;;;;;;4935949;28;20485;-72
2021/08/19 06:14:57;;;;;;;1.30;1.20;;;;;;;;;;4934897;28;20399;-71
2021/08/19 06:17:23;;;;;;;2.43;1.47;;;;;;;;;;4933944;28;20446;-72
2021/08/19 06:19:49;;;;;;;0.90;0.80;;;;;;;;;;4945214;29;20771;-72
2021/08/19 06:22:15;;;;;;;0.80;0.80;;;;;;;;;;4935428;28;20539;-72
2021/08/19 06:24:41;;;;;;;0.90;0.60;;;;;;;;;;4936148;29;20493;-72
2021/08/19 06:27:07;;;;;;;5.53;0.80;;;;;;;;;;4935556;28;20438;-72
2021/08/19 06:29:33;;;;;;;2.00;1.90;;;;;;;;;;5040654;23;20495;-74
2021/08/19 06:31:59;;;;;;;1.00;0.90;;;;;;;;;;5043199;28;20397;-75
2021/08/19 06:34:25;;;;;;;0.80;0.60;;;;;;;;;;5015407;28;20403;-74
2021/08/19 06:36:52;;;;;;;1.37;0.80;;;;;;;;;;5040908;28;20393;-74
2021/08/19 06:39:18;;;;;;;1.20;1.10;;;;;;;;;;5018248;28;20466;-74
2021/08/19 06:41:44;;;;;;;1.00;0.80;;;;;;;;;;5012634;28;20971;-75
2021/08/19 06:44:10;;;;;;;1.83;1.23;;;;;;;;;;5012322;28;20461;-74
2021/08/19 06:46:36;;;;;;;1.67;1.10;;;;;;;;;;5010090;28;20858;-75
2021/08/19 06:49:02;;;;;;;1.53;1.23;;;;;;;;;;5016083;28;20510;-75
2021/08/19 06:51:30;;;;;;;0.80;0.57;;;;;;;;;;5021524;28;20431;-74
2021/08/19 06:53:56;;;;;;;1.47;0.90;;;;;;;;;;5015280;28;20559;-76
2021/08/19 06:56:23;;;;;;;1.63;1.17;;;;;;;;;;5016016;28;20444;-75
2021/08/19 06:58:49;;;;;;;1.10;1.00;;;;;;;;;;5015855;28;20439;-73
2021/08/19 07:01:15;;;;;;;0.90;0.80;;;;;;;;;;5016301;28;20454;-74
2021/08/19 07:03:41;;;;;;;1.97;0.80;;;;;;;;;;5015305;28;20453;-74
2021/08/19 07:06:15;;;;;;;2.30;1.27;;;;;;;;;;5015099;28;20383;-75
2021/08/19 07:08:41;;;;;;;2.50;2.03;;;;;;;;;;5015436;28;20490;-74
2021/08/19 07:11:07;;;;;;;0.90;0.70;;;;;;;;;;5015378;28;20420;-74
2021/08/19 07:13:33;;;;;;;1.70;1.40;;;;;;;;;;5015037;28;20416;-73
2021/08/19 07:15:59;;;;;;;1.40;1.23;;;;;;;;;;5014757;28;20421;-74
2021/08/19 07:18:25;;;;;;;1.20;1.10;;;;;;;;;;5014091;28;20926;-74
2021/08/19 07:20:51;;;;;;;1.30;1.00;;;;;;;;;;5029384;28;20465;-74
2021/08/19 07:23:17;;;;;;;1.00;0.80;;;;;;;;;;5016022;28;20392;-75
2021/08/19 07:25:44;;;;;;;1.20;1.10;;;;;;;;;;5015477;28;20421;-75
2021/08/19 07:28:11;;;;;;;3.63;0.90;;;;;;;;;;5014209;28;20461;-74
2021/08/19 07:30:37;;;;;;;2.20;1.10;;;;;;;;;;5014506;28;20414;-74
2021/08/19 07:33:03;;;;;;;3.43;1.17;;;;;;;;;;5015011;28;20444;-74
2021/08/19 07:35:29;;;;;;;1.00;0.90;;;;;;;;;;5014529;28;20406;-74
2021/08/19 07:37:56;;;;;;;1.27;1.20;;;;;;;;;;5014281;28;20400;-75
2021/08/19 07:40:23;;;;;;;0.80;0.60;;;;;;;;;;5014623;28;20406;-75
2021/08/19 07:42:50;;;;;;;1.97;1.27;;;;;;;;;;5014676;28;20402;-75
2021/08/19 07:45:17;;;;;;;1.30;1.20;;;;;;;;;;5018956;28;20444;-75
2021/08/19 07:47:43;;;;;;;1.17;1.07;;;;;;;;;;5013255;28;20809;-74
2021/08/19 07:50:10;;;;;;;1.17;1.03;;;;;;;;;;5022593;28;20509;-73
2021/08/19 07:52:36;;;;;;;0.93;0.90;;;;;;;;;;5026210;28;20399;-75
2021/08/19 07:55:02;;;;;;;1.40;1.30;;;;;;;;;;5012864;28;20408;-75
2021/08/19 07:57:28;;;;;;;1.60;0.80;;;;;;;;;;5013911;28;20439;-75
2021/08/19 07:59:54;;;;;;;1.67;1.10;;;;;;;;;;5013495;28;20481;-75
2021/08/19 08:02:20;;;;;;;1.50;1.20;;;;;;;;;;5013773;28;20504;-75
2021/08/19 08:04:46;;;;;;;1.90;1.37;;;;;;;;;;5013899;28;20427;-75
2021/08/19 08:07:12;;;;;;;1.00;0.70;;;;;;;;;;5013914;28;20893;-75
2021/08/19 08:09:38;;;;;;;1.23;1.13;;;;;;;;;;5013964;28;20428;-74
2021/08/19 08:12:05;;;;;;;0.90;0.80;;;;;;;;;;5013871;28;20435;-75
2021/08/19 08:14:31;;;;;;;3.10;1.10;;;;;;;;;;5013524;28;20432;-75
2021/08/19 08:16:57;;;;;;;1.83;1.73;;;;;;;;;;5013654;28;20406;-75
2021/08/19 08:19:23;;;;;;;1.93;1.37;;;;;;;;;;5012265;28;20803;-75
2021/08/19 08:21:50;;;;;;;2.40;1.17;;;;;;;;;;5021814;28;20442;-75
2021/08/19 08:24:16;;;;;;;1.10;1.00;;;;;;;;;;5013961;28;20413;-73
2021/08/19 08:26:42;;;;;;;1.57;1.10;;;;;;;;;;5012972;28;20774;-73
2021/08/19 08:29:08;;;;;;;1.53;1.43;;;;;;;;;;5013322;28;20416;-76
2021/08/19 08:31:34;;;;;;;2.50;1.57;;;;;;;;;;5014022;28;20769;-75
2021/08/19 08:34:00;;;;;;;1.13;0.80;;;;;;;;;;5013572;28;20410;-73
2021/08/19 08:36:26;;;;;;;3.10;1.20;;;;;;;;;;5013403;28;20948;-73
2021/08/19 08:38:52;;;;;;;1.37;1.27;;;;;;;;;;5013401;28;20424;-75
2021/08/19 08:41:21;;;;;;;0.90;0.80;;;;;;;;;;5013382;28;20484;-75
2021/08/19 08:43:48;;;;;;;1.07;0.80;;;;;;;;;;5013189;28;20560;-75
2021/08/19 08:46:15;;;;;;;1.27;1.17;;;;;;;;;;5012999;28;20418;-75
2021/08/19 08:48:42;;;;;;;0.87;0.77;;;;;;;;;;5013684;28;20970;-74
2021/08/19 08:51:09;;;;;;;0.97;0.77;;;;;;;;;;5020571;28;20488;-75
2021/08/19 08:53:35;;;;;;;2.67;1.00;;;;;;;;;;5012910;28;20444;-73
2021/08/19 08:56:01;;;;;;;1.33;1.23;;;;;;;;;;5013488;28;20396;-74
2021/08/19 08:58:27;;;;;;;0.90;0.90;;;;;;;;;;5012885;28;20411;-75
2021/08/19 09:00:53;;;;;;;1.30;1.20;;;;;;;;;;5013349;28;20435;-75
2021/08/19 09:03:19;;;;;;;0.80;0.60;;;;;;;;;;5013245;28;20405;-74
2021/08/19 09:05:47;;;;;;;1.30;0.73;;;;;;;;;;5012216;28;20418;-73
2021/08/19 09:08:14;;;;;;;1.63;0.97;;;;;;;;;;5008599;28;20432;-75
2021/08/19 09:10:41;;;;;;;1.10;1.00;;;;;;;;;;5004422;28;20446;-74
2021/08/19 09:13:08;;;;;;;2.20;1.77;;;;;;;;;;5012283;28;20790;-75
2021/08/19 09:15:34;;;;;;;0.97;0.87;;;;;;;;;;5012569;28;20421;-74
2021/08/19 09:18:02;;;;;;;4.47;1.37;;;;;;;;;;5011609;28;20428;-75
2021/08/19 09:20:33;;;;;;;3.33;1.00;;;;;;;;;;5020316;28;20388;-74
2021/08/19 09:23:00;;;;;;;0.80;0.63;;;;;;;;;;4993102;28;20381;-74
2021/08/19 09:25:27;;;;;;;6.20;1.20;;;;;;;;;;4993296;28;20876;-74
2021/08/19 09:28:08;;;;;;;1.00;0.80;;;;;;;;;;5011830;28;20458;-75
2021/08/19 09:30:35;;;;;;;1.00;0.70;;;;;;;;;;5012582;28;20395;-74
2021/08/19 09:33:05;;;;;;;0.93;0.83;;;;;;;;;;5010456;28;20888;-74
2021/08/19 09:35:32;;;;;;;1.40;0.70;;;;;;;;;;5012471;28;20425;-74
2021/08/19 09:37:58;;;;;;;1.10;0.90;;;;;;;;;;5015449;28;20395;-75
2021/08/19 09:40:24;;;;;;;1.00;0.80;;;;;;;;;;5023867;28;20466;-73
2021/08/19 09:42:50;;;;;;;1.93;0.80;;;;;;;;;;5032249;28;20388;-73
2021/08/19 09:45:20;;;;;;;1.00;0.70;;;;;;;;;;5012046;28;20462;-74
2021/08/19 09:47:46;;;;;;;1.63;1.20;;;;;;;;;;5011088;28;20396;-74
2021/08/19 09:50:17;;;;;;;0.97;0.87;;;;;;;;;;5011475;28;20498;-76
2021/08/19 09:52:44;;;;;;;1.40;1.17;;;;;;;;;;5012267;28;20392;-73
2021/08/19 09:55:24;;;;;;;2.03;1.17;;;;;;;;;;5016341;28;20407;-75
2021/08/19 09:57:50;;;;;;;1.20;0.83;;;;;;;;;;5023439;28;20423;-74
2021/08/19 10:00:42;;;;;;;1.30;0.70;;;;;;;;;;5017800;28;20439;-74
2021/08/19 10:03:10;;;;;;;1.13;1.03;;;;;;;;;;5009736;28;20458;-74
2021/08/19 10:05:37;;;;;;;0.80;0.60;;;;;;;;;;5011998;28;20400;-74
2021/08/19 10:08:08;;;;;;;2.93;1.17;;;;;;;;;;5011950;28;20388;-73
2021/08/19 10:10:35;;;;;;;0.80;0.60;;;;;;;;;;5011932;28;20776;-73
2021/08/19 10:13:02;;;;;;;0.90;0.73;;;;;;;;;;5003161;28;20405;-74
2021/08/19 10:15:28;;;;;;;0.90;0.63;;;;;;;;;;5012013;28;20879;-74
2021/08/19 10:17:55;;;;;;;0.80;0.70;;;;;;;;;;5005995;28;20417;-74
2021/08/19 10:20:23;;;;;;;1.73;1.63;;;;;;;;;;5003391;28;20967;-74
2021/08/19 10:22:50;;;;;;;0.83;0.70;;;;;;;;;;5011878;28;20547;-74
2021/08/19 10:25:18;;;;;;;1.17;1.07;;;;;;;;;;5018056;28;20411;-74
2021/08/19 10:27:44;;;;;;;0.80;0.80;;;;;;;;;;5023205;28;20923;-74
2021/08/19 10:30:20;;;;;;;1.63;0.80;;;;;;;;;;5029398;28;20464;-73
2021/08/19 10:32:51;;;;;;;1.10;0.70;;;;;;;;;;5016449;28;20405;-73
2021/08/19 10:35:23;;;;;;;1.20;0.80;;;;;;;;;;5016123;28;20474;-75
2021/08/19 10:37:49;;;;;;;0.80;0.60;;;;;;;;;;5015417;28;20432;-74
2021/08/19 10:40:25;;;;;;;1.37;1.27;;;;;;;;;;5015384;28;20519;-75
2021/08/19 10:43:20;;;;;;;0.80;0.60;;;;;;;;;;5015935;28;20417;-75
2021/08/19 10:45:46;;;;;;;0.80;0.50;;;;;;;;;;5017021;28;20455;-75
2021/08/19 10:48:12;;;;;;;0.80;0.70;;;;;;;;;;5016433;28;20491;-74
2021/08/19 10:50:40;;;;;;;1.50;0.83;;;;;;;;;;5013809;28;20959;-75
2021/08/19 10:53:10;;;;;;;0.80;0.70;;;;;;;;;;5014201;28;20402;-74
2021/08/19 10:55:40;;;;;;;1.23;0.80;;;;;;;;;;5023658;28;20386;-75
2021/08/19 10:58:21;;;;;;;1.07;0.70;;;;;;;;;;5019201;28;20422;-75
2021/08/19 11:00:47;;;;;;;1.00;0.70;;;;;;;;;;5015320;28;20461;-75
2021/08/19 11:03:33;;;;;;;0.80;0.67;;;;;;;;;;5015402;28;20436;-74
2021/08/19 11:05:59;;;;;;;0.93;0.70;;;;;;;;;;5014888;28;20427;-74
2021/08/19 11:08:37;;;;;;;0.80;0.60;;;;;;;;;;5015020;28;20851;-74
2021/08/19 11:11:04;;;;;;;1.10;0.70;;;;;;;;;;5015063;28;20389;-74
2021/08/19 11:13:34;;;;;;;0.90;0.80;;;;;;;;;;5015424;28;20391;-74
2021/08/19 11:16:00;;;;;;;0.80;0.60;;;;;;;;;;5015001;28;20425;-74
2021/08/19 11:18:28;;;;;;;0.90;0.80;;;;;;;;;;5013670;28;20408;-75
2021/08/19 11:20:54;;;;;;;1.23;1.13;;;;;;;;;;5013698;28;20483;-74
2021/08/19 11:23:26;;;;;;;0.80;0.67;;;;;;;;;;5015011;28;20477;-74
2021/08/19 11:25:59;;;;;;;1.10;1.00;;;;;;;;;;5022842;28;20418;-75
2021/08/19 11:28:25;;;;;;;0.80;0.63;;;;;;;;;;5030489;28;20838;-74
2021/08/19 11:30:51;;;;;;;2.20;1.00;;;;;;;;;;5034932;28;20419;-75
2021/08/19 11:33:17;;;;;;;0.80;0.77;;;;;;;;;;5034740;28;20422;-74
2021/08/19 11:35:45;;;;;;;1.53;1.10;;;;;;;;;;5017621;28;20779;-73
2021/08/19 11:38:12;;;;;;;0.80;0.70;;;;;;;;;;5014451;28;20455;-74
2021/08/19 11:40:39;;;;;;;1.33;1.23;;;;;;;;;;5013474;28;20433;-74
2021/08/19 11:43:25;;;;;;;0.80;0.60;;;;;;;;;;5012643;28;20384;-75
2021/08/19 11:45:52;;;;;;;0.80;0.70;;;;;;;;;;5014585;28;20818;-74
2021/08/19 11:48:20;;;;;;;0.80;0.60;;;;;;;;;;5012769;28;20452;-74
2021/08/19 11:50:51;;;;;;;0.80;0.50;;;;;;;;;;5014101;28;20524;-75
2021/08/19 11:53:18;;;;;;;0.80;0.60;;;;;;;;;;5014662;28;20864;-75
2021/08/19 11:55:44;;;;;;;0.80;0.60;;;;;;;;;;5020106;28;20461;-75
2021/08/19 11:58:19;;;;;;;0.80;0.50;;;;;;;;;;5018609;28;20438;-74
2021/08/19 12:01:06;;;;;;;0.80;0.50;;;;;;;;;;5012752;28;20937;-74
2021/08/19 12:03:33;;;;;;;0.83;0.83;;;;;;;;;;5002018;28;20832;-75
2021/08/19 12:06:00;;;;;;;0.80;0.63;;;;;;;;;;5015348;28;20621;-76
2021/08/19 12:08:30;;;;;;;0.80;0.60;;;;;;;;;;5015096;28;20408;-76
2021/08/19 12:10:57;;;;;;;0.80;0.50;;;;;;;;;;5015569;28;20417;-76
2021/08/19 12:13:24;;;;;;;0.70;0.50;;;;;;;;;;5015733;28;20430;-76
2021/08/19 12:15:50;;;;;;;1.10;1.00;;;;;;;;;;5015196;28;20401;-76
2021/08/19 12:18:27;;;;;;;1.03;0.83;;;;;;;;;;5015286;28;20436;-75
2021/08/19 12:21:11;;;;;;;0.70;0.50;;;;;;;;;;5014425;28;20469;-76
2021/08/19 12:23:38;;;;;;;0.70;0.50;;;;;;;;;;5014998;28;20426;-75
2021/08/19 12:26:08;;;;;;;0.90;0.60;;;;;;;;;;5022629;28;20731;-76
2021/08/19 12:28:34;;;;;;;0.70;0.60;;;;;;;;;;5042406;22;20548;-72
2021/08/19 12:31:02;;;;;;;0.70;0.50;;;;;;;;;;4971109;28;20435;-72
2021/08/19 12:33:30;;;;;;;1.10;0.60;;;;;;;;;;4931980;29;20413;-72
2021/08/19 12:36:12;;;;;;;0.90;0.90;;;;;;;;;;4969952;28;20466;-72
2021/08/19 12:38:38;;;;;;;0.80;0.70;;;;;;;;;;5033346;28;20890;-71
2021/08/19 12:41:11;;;;;;;0.70;0.60;;;;;;;;;;4983349;28;21045;-72
2021/08/19 12:43:37;;;;;;;1.13;0.80;;;;;;;;;;4933204;29;20419;-72
2021/08/19 12:46:09;;;;;;;0.90;0.67;;;;;;;;;;4961343;28;20442;-73
2021/08/19 12:48:35;;;;;;;0.70;0.50;;;;;;;;;;5005234;28;20450;-73
2021/08/19 12:51:36;;;;;;;0.70;0.50;;;;;;;;;;4940595;28;20442;-72
2021/08/19 12:54:07;;;;;;;0.80;0.60;;;;;;;;;;4892841;29;20410;-72
2021/08/19 12:56:33;;;;;;;0.80;0.80;;;;;;;;;;4925293;28;20421;-71
2021/08/19 12:58:59;;;;;;;0.70;0.50;;;;;;;;;;4943912;29;20474;-72
2021/08/19 13:01:25;;;;;;;0.70;0.60;;;;;;;;;;4951975;29;20473;-71
2021/08/19 13:03:51;;;;;;;0.73;0.67;;;;;;;;;;4934303;29;20774;-72
2021/08/19 13:06:19;;;;;;;0.80;0.60;;;;;;;;;;4932575;29;20779;-72
2021/08/19 13:08:46;;;;;;;0.70;0.50;;;;;;;;;;4932555;29;20426;-72
2021/08/19 13:11:13;;;;;;;0.70;0.60;;;;;;;;;;4932718;29;20414;-72
2021/08/19 13:13:39;;;;;;;0.90;0.63;;;;;;;;;;4932819;29;20421;-72
2021/08/19 13:16:05;;;;;;;1.00;0.90;;;;;;;;;;4932702;29;20385;-72
2021/08/19 13:18:32;;;;;;;0.70;0.60;;;;;;;;;;4951880;28;20524;-72
2021/08/19 13:21:00;;;;;;;0.80;0.60;;;;;;;;;;4930911;28;20473;-72
2021/08/19 13:23:28;;;;;;;0.73;0.60;;;;;;;;;;4932209;29;20430;-71
2021/08/19 13:25:54;;;;;;;0.80;0.70;;;;;;;;;;4932149;28;20426;-72
2021/08/19 13:28:20;;;;;;;1.10;0.77;;;;;;;;;;4939999;29;20392;-71
2021/08/19 13:30:46;;;;;;;0.90;0.90;;;;;;;;;;4950191;29;20567;-71
2021/08/19 13:33:12;;;;;;;0.70;0.50;;;;;;;;;;4951487;29;20417;-71
2021/08/19 13:35:38;;;;;;;0.70;0.60;;;;;;;;;;4951072;28;20426;-71
2021/08/19 13:38:06;;;;;;;0.70;0.50;;;;;;;;;;4932120;29;20404;-71
2021/08/19 13:40:32;;;;;;;0.90;0.80;;;;;;;;;;4932131;29;20448;-71
2021/08/19 13:42:59;;;;;;;0.80;0.60;;;;;;;;;;4987001;28;20525;-71
2021/08/19 13:45:25;;;;;;;1.53;0.70;;;;;;;;;;4932076;29;20499;-71
2021/08/19 13:47:51;;;;;;;0.87;0.77;;;;;;;;;;4930741;29;20462;-71
2021/08/19 13:50:17;;;;;;;0.70;0.50;;;;;;;;;;4929804;29;21201;-71
2021/08/19 13:52:43;;;;;;;0.70;0.60;;;;;;;;;;4931847;29;20427;-71
2021/08/19 13:55:09;;;;;;;0.70;0.50;;;;;;;;;;4932578;29;20434;-71
2021/08/19 13:57:35;;;;;;;0.70;0.60;;;;;;;;;;4958492;28;20448;-71
2021/08/19 14:00:01;;;;;;;1.10;1.00;;;;;;;;;;4943706;29;20436;-71
2021/08/19 14:02:27;;;;;;;0.70;0.60;;;;;;;;;;4950756;29;20884;-71
2021/08/19 14:04:53;;;;;;;0.80;0.50;;;;;;;;;;4931459;29;20471;-71
2021/08/19 14:07:19;;;;;;;1.00;0.90;;;;;;;;;;4931689;29;20439;-71
2021/08/19 14:09:45;;;;;;;0.70;0.50;;;;;;;;;;4919885;28;20465;-71
2021/08/19 14:12:11;;;;;;;0.70;0.60;;;;;;;;;;4932212;28;20423;-71
2021/08/19 14:14:37;;;;;;;0.70;0.60;;;;;;;;;;4980895;28;20404;-71
2021/08/19 14:17:03;;;;;;;0.70;0.50;;;;;;;;;;4931253;29;20920;-71
2021/08/19 14:19:29;;;;;;;0.70;0.50;;;;;;;;;;4930930;29;20440;-71
2021/08/19 14:21:57;;;;;;;0.70;0.60;;;;;;;;;;4930812;29;20533;-71
2021/08/19 14:24:26;;;;;;;0.70;0.60;;;;;;;;;;4916769;29;20793;-71
2021/08/19 14:26:52;;;;;;;0.80;0.60;;;;;;;;;;4934244;29;20471;-71
2021/08/19 14:29:18;;;;;;;0.70;0.50;;;;;;;;;;4945319;28;20452;-71
2021/08/19 14:31:44;;;;;;;0.70;0.60;;;;;;;;;;4947213;29;20429;-71
2021/08/19 14:34:10;;;;;;;0.80;0.60;;;;;;;;;;5023626;28;20436;-71
2021/08/19 14:36:36;;;;;;;0.70;0.60;;;;;;;;;;5031301;28;20419;-71
2021/08/19 14:39:03;;;;;;;0.70;0.60;;;;;;;;;;4991107;28;20434;-71
2021/08/19 14:41:29;;;;;;;0.70;0.60;;;;;;;;;;4926035;29;20466;-70
2021/08/19 14:43:55;;;;;;;0.87;0.70;;;;;;;;;;4918237;29;20416;-71